Time;durP1;ratioP1;P1;durP2;ratioP2;P2;SDS_P1;SDS_P2;PMS_P1;PMS_P2;Temp;Humidity;BMP_temperature;BMP_pressure;BME280_temperature;BME280_humidity;BME280_pressure;Samples;Min_cycle;Max_cycle;Signal;HPM_P1;HPM_P2
2022/06/10 00:00:03;;;;;;;1.10;0.70;;;16.40;99.90;;;;;;4890989;29;20577;-67
2022/06/10 00:02:30;;;;;;;1.02;0.70;;;16.50;99.90;;;;;;4924343;29;20048;-67
2022/06/10 00:04:57;;;;;;;0.90;0.60;;;16.50;99.90;;;;;;4925763;29;20566;-67
2022/06/10 00:07:24;;;;;;;1.30;0.50;;;16.50;99.90;;;;;;4893324;29;20083;-67
2022/06/10 00:09:50;;;;;;;0.50;0.40;;;16.50;99.90;;;;;;4925889;29;20158;-67
2022/06/10 00:12:18;;;;;;;0.90;0.60;;;16.50;99.90;;;;;;4924317;29;20589;-67
2022/06/10 00:14:45;;;;;;;0.80;0.57;;;16.50;99.90;;;;;;4908243;29;20515;-68
2022/06/10 00:17:11;;;;;;;2.05;0.50;;;16.50;99.90;;;;;;4925748;29;20078;-67
2022/06/10 00:19:38;;;;;;;1.63;0.70;;;16.50;99.90;;;;;;4925073;29;20054;-67
2022/06/10 00:22:05;;;;;;;1.30;0.60;;;16.50;99.90;;;;;;4907886;29;20383;-67
2022/06/10 00:24:32;;;;;;;1.00;0.60;;;16.50;99.90;;;;;;4907302;29;20503;-67
2022/06/10 00:26:58;;;;;;;1.17;0.68;;;16.50;99.90;;;;;;4924107;29;20151;-68
2022/06/10 00:29:25;;;;;;;1.05;0.73;;;16.50;99.90;;;;;;4924771;29;20455;-68
2022/06/10 00:31:52;;;;;;;0.95;0.70;;;16.50;99.90;;;;;;4892953;29;20389;-67
2022/06/10 00:34:19;;;;;;;2.38;0.80;;;16.50;99.90;;;;;;4924512;29;20056;-67
2022/06/10 00:36:46;;;;;;;1.08;0.63;;;16.50;99.90;;;;;;4925484;29;20091;-67
2022/06/10 00:39:13;;;;;;;1.08;0.60;;;16.50;99.90;;;;;;4891737;29;20094;-67
2022/06/10 00:41:44;;;;;;;0.50;0.47;;;16.50;99.90;;;;;;4924523;29;20591;-67
2022/06/10 00:44:35;;;;;;;0.95;0.60;;;16.50;99.90;;;;;;4891274;29;20292;-68
2022/06/10 00:47:15;;;;;;;1.20;0.80;;;16.50;99.90;;;;;;4907594;29;20052;-67
2022/06/10 00:49:45;;;;;;;0.90;0.73;;;16.50;99.90;;;;;;4893433;29;20117;-67
2022/06/10 00:52:29;;;;;;;1.00;0.90;;;16.50;99.90;;;;;;4908996;29;20134;-67
2022/06/10 00:54:56;;;;;;;0.70;0.70;;;16.40;99.90;;;;;;4889835;29;20083;-67
2022/06/10 00:57:27;;;;;;;1.65;0.80;;;16.50;99.90;;;;;;4923741;29;20048;-67
2022/06/10 01:00:00;;;;;;;0.60;0.60;;;16.40;99.90;;;;;;4907721;29;20142;-67
2022/06/10 01:02:30;;;;;;;0.95;0.70;;;16.50;99.90;;;;;;4925080;29;20083;-68
2022/06/10 01:05:00;;;;;;;0.55;0.45;;;16.50;99.90;;;;;;4891651;29;20043;-67
2022/06/10 01:07:30;;;;;;;1.13;0.77;;;16.50;99.90;;;;;;4907951;29;20130;-67
2022/06/10 01:09:57;;;;;;;1.52;0.88;;;16.50;99.90;;;;;;4892424;29;20087;-68
2022/06/10 01:12:50;;;;;;;1.00;0.88;;;16.50;99.90;;;;;;4906742;29;20488;-68
2022/06/10 01:15:41;;;;;;;1.02;0.65;;;16.50;99.90;;;;;;4892553;29;20052;-68
2022/06/10 01:18:20;;;;;;;0.60;0.60;;;16.50;99.90;;;;;;4907003;29;20425;-67
2022/06/10 01:21:14;;;;;;;1.05;0.70;;;16.50;99.90;;;;;;4924648;29;20170;-67
2022/06/10 01:23:53;;;;;;;0.93;0.65;;;16.50;99.90;;;;;;4914376;29;20700;-67
2022/06/10 01:26:20;;;;;;;0.70;0.60;;;16.50;99.90;;;;;;4924390;29;20086;-67
2022/06/10 01:29:24;;;;;;;0.75;0.75;;;16.50;99.90;;;;;;4922690;29;20142;-67
2022/06/10 01:32:02;;;;;;;1.15;0.80;;;16.50;99.90;;;;;;4919434;29;20499;-67
2022/06/10 01:34:48;;;;;;;0.73;0.68;;;16.40;99.90;;;;;;4896007;29;20063;-67
2022/06/10 01:37:45;;;;;;;2.00;0.90;;;16.40;99.90;;;;;;4899749;29;20052;-67
2022/06/10 01:40:34;;;;;;;0.65;0.65;;;16.30;99.90;;;;;;4915511;29;20074;-68
2022/06/10 01:43:05;;;;;;;1.17;0.90;;;16.20;99.90;;;;;;4899003;29;20052;-68
2022/06/10 01:45:36;;;;;;;0.80;0.70;;;16.20;99.90;;;;;;4913676;29;20135;-68
2022/06/10 01:48:07;;;;;;;0.60;0.60;;;16.30;99.90;;;;;;4898103;29;20514;-67
2022/06/10 01:50:38;;;;;;;0.70;0.60;;;16.20;99.90;;;;;;4929980;29;20055;-68
2022/06/10 01:53:12;;;;;;;0.47;0.47;;;16.20;99.90;;;;;;4913288;29;20131;-67
2022/06/10 01:55:47;;;;;;;0.55;0.50;;;16.30;99.90;;;;;;4912362;29;20079;-68
2022/06/10 01:58:22;;;;;;;0.85;0.60;;;16.20;99.90;;;;;;4928346;29;20058;-67
2022/06/10 02:00:51;;;;;;;0.50;0.50;;;16.20;99.90;;;;;;4930160;29;20344;-68
2022/06/10 02:03:23;;;;;;;0.40;0.40;;;16.20;99.90;;;;;;4912927;29;21019;-67
2022/06/10 02:05:59;;;;;;;0.63;0.50;;;16.20;99.90;;;;;;4913012;29;20071;-67
2022/06/10 02:08:32;;;;;;;0.82;0.52;;;16.20;99.90;;;;;;4898122;29;20146;-67
2022/06/10 02:11:10;;;;;;;0.60;0.47;;;16.20;99.90;;;;;;4912443;29;20599;-67
2022/06/10 02:13:59;;;;;;;0.50;0.45;;;16.20;99.90;;;;;;4911213;29;20060;-67
2022/06/10 02:16:27;;;;;;;0.40;0.40;;;16.20;99.90;;;;;;4912905;29;20513;-67
2022/06/10 02:19:08;;;;;;;0.70;0.55;;;16.20;99.90;;;;;;4897403;29;20087;-67
2022/06/10 02:21:42;;;;;;;0.57;0.57;;;16.20;99.90;;;;;;4897784;29;20194;-67
2022/06/10 02:24:30;;;;;;;0.38;0.38;;;16.10;99.90;;;;;;4897139;29;20059;-67
2022/06/10 02:27:01;;;;;;;0.73;0.50;;;16.10;99.90;;;;;;4913837;29;20114;-67
2022/06/10 02:29:33;;;;;;;0.40;0.40;;;16.10;99.90;;;;;;4912143;29;20192;-67
2022/06/10 02:32:00;;;;;;;0.47;0.47;;;16.10;99.90;;;;;;4905740;29;20083;-68
2022/06/10 02:34:27;;;;;;;0.80;0.60;;;16.10;99.90;;;;;;4912688;29;20094;-67
2022/06/10 02:37:17;;;;;;;0.60;0.52;;;16.20;99.90;;;;;;4896999;29;20139;-67
2022/06/10 02:39:52;;;;;;;0.60;0.60;;;16.20;99.90;;;;;;4898297;29;20570;-68
2022/06/10 02:42:53;;;;;;;0.50;0.50;;;16.20;99.90;;;;;;4912367;29;20151;-67
2022/06/10 02:45:49;;;;;;;0.50;0.50;;;16.20;99.90;;;;;;4914205;29;20499;-67
2022/06/10 02:48:20;;;;;;;0.65;0.47;;;16.20;99.90;;;;;;4922457;29;20062;-67
2022/06/10 02:50:46;;;;;;;0.40;0.40;;;16.20;99.90;;;;;;4912102;29;20566;-67
2022/06/10 02:53:13;;;;;;;1.02;0.52;;;16.20;99.90;;;;;;4912339;29;20139;-67
2022/06/10 02:55:40;;;;;;;1.13;0.75;;;16.20;99.90;;;;;;4911106;29;20138;-67
2022/06/10 03:01:13;;;;;;;1.10;0.90;;;16.10;99.90;;;;;;4914407;29;20087;-68
2022/06/10 03:04:11;;;;;;;1.65;1.10;;;16.10;99.90;;;;;;4928909;29;20087;-68
2022/06/10 03:06:40;;;;;;;1.27;0.80;;;16.10;99.90;;;;;;4911547;29;20061;-67
2022/06/10 03:09:22;;;;;;;1.40;0.82;;;16.10;99.90;;;;;;4911564;29;20083;-67
2022/06/10 03:12:09;;;;;;;2.10;0.90;;;16.10;99.90;;;;;;4896535;29;20048;-68
2022/06/10 03:14:43;;;;;;;1.73;1.10;;;16.10;99.90;;;;;;4913376;29;20104;-67
2022/06/10 03:17:29;;;;;;;2.03;0.93;;;16.10;99.90;;;;;;4928048;29;20055;-67
2022/06/10 03:20:19;;;;;;;1.50;1.00;;;16.20;99.90;;;;;;4912121;29;20059;-68
2022/06/10 03:22:54;;;;;;;1.63;0.85;;;16.20;99.90;;;;;;4916801;29;20087;-68
2022/06/10 03:25:24;;;;;;;1.75;1.00;;;16.20;99.90;;;;;;4911459;29;20143;-67
2022/06/10 03:28:02;;;;;;;1.25;1.00;;;16.20;99.90;;;;;;4894432;29;20506;-67
2022/06/10 03:30:48;;;;;;;1.67;1.05;;;16.20;99.90;;;;;;4912104;29;20048;-68
2022/06/10 03:33:37;;;;;;;2.20;1.25;;;16.20;99.90;;;;;;4911298;29;20056;-67
2022/06/10 03:36:09;;;;;;;2.08;1.33;;;16.20;99.90;;;;;;4911352;29;20076;-68
2022/06/10 03:38:41;;;;;;;2.22;1.40;;;16.10;99.90;;;;;;4911023;29;20927;-68
2022/06/10 03:41:08;;;;;;;1.80;1.10;;;16.10;99.90;;;;;;4927296;29;20659;-67
2022/06/10 03:43:36;;;;;;;1.10;1.00;;;16.10;99.90;;;;;;4926672;29;20047;-68
2022/06/10 03:46:09;;;;;;;2.60;1.35;;;16.10;99.90;;;;;;4895934;29;20130;-67
2022/06/10 03:48:37;;;;;;;2.35;1.67;;;16.10;99.90;;;;;;4896158;29;20055;-68
2022/06/10 03:51:04;;;;;;;4.38;2.35;;;16.10;99.90;;;;;;4911211;29;20075;-67
2022/06/10 03:53:31;;;;;;;2.78;1.40;;;16.10;99.90;;;;;;4910605;29;20098;-67
2022/06/10 03:55:58;;;;;;;5.35;1.77;;;16.10;99.90;;;;;;4926746;29;20050;-67
2022/06/10 03:58:24;;;;;;;2.25;1.60;;;16.00;99.90;;;;;;4926242;29;20054;-67
2022/06/10 04:00:51;;;;;;;2.42;1.33;;;16.00;99.90;;;;;;4927938;29;20083;-68
2022/06/10 04:03:18;;;;;;;3.20;1.80;;;16.00;99.90;;;;;;4927373;29;20467;-67
2022/06/10 04:05:44;;;;;;;2.38;1.33;;;16.00;99.90;;;;;;4927548;29;20059;-68
2022/06/10 04:08:31;;;;;;;2.95;1.67;;;16.00;99.90;;;;;;4913584;29;20047;-67
2022/06/10 04:10:58;;;;;;;3.78;1.90;;;15.90;99.90;;;;;;4926697;29;20055;-67
2022/06/10 04:13:25;;;;;;;2.42;1.38;;;15.90;99.90;;;;;;4926452;29;20130;-67
2022/06/10 04:15:52;;;;;;;3.70;1.63;;;15.80;99.90;;;;;;4895074;29;20083;-67
2022/06/10 04:18:18;;;;;;;3.17;1.48;;;15.80;99.90;;;;;;4910121;29;20058;-67
2022/06/10 04:20:45;;;;;;;3.88;1.60;;;15.70;99.90;;;;;;4910694;29;20114;-67
2022/06/10 04:23:14;;;;;;;3.20;1.58;;;15.70;99.90;;;;;;4894455;29;20103;-68
2022/06/10 04:25:41;;;;;;;2.63;1.40;;;15.70;99.90;;;;;;4894212;29;20522;-67
2022/06/10 04:28:08;;;;;;;2.22;1.30;;;15.80;99.90;;;;;;4907775;29;20431;-68
2022/06/10 04:30:40;;;;;;;1.95;1.27;;;15.80;99.90;;;;;;4910263;29;20058;-67
2022/06/10 04:33:07;;;;;;;2.22;1.10;;;15.80;99.90;;;;;;4926998;29;20170;-67
2022/06/10 04:35:35;;;;;;;1.60;1.10;;;15.90;99.90;;;;;;4910210;29;20537;-67
2022/06/10 04:38:02;;;;;;;2.47;1.00;;;15.90;99.90;;;;;;4894628;29;20076;-67
2022/06/10 04:40:32;;;;;;;2.30;0.82;;;15.90;99.90;;;;;;4909750;29;20278;-68
2022/06/10 04:42:59;;;;;;;2.50;1.05;;;15.90;99.90;;;;;;4908757;29;20582;-67
2022/06/10 04:45:29;;;;;;;2.45;1.20;;;15.90;99.90;;;;;;4909373;29;20075;-67
2022/06/10 04:47:56;;;;;;;2.28;1.10;;;16.00;99.90;;;;;;4926571;29;20052;-67
2022/06/10 04:50:23;;;;;;;3.50;1.17;;;16.00;99.90;;;;;;4926543;29;20143;-67
2022/06/10 04:52:51;;;;;;;2.25;1.00;;;16.00;99.90;;;;;;4926734;29;20416;-68
2022/06/10 04:55:19;;;;;;;2.72;1.13;;;16.00;99.90;;;;;;4908992;29;20078;-67
2022/06/10 04:57:46;;;;;;;1.83;1.23;;;16.00;99.90;;;;;;4908771;29;20134;-68
2022/06/10 05:00:20;;;;;;;1.95;1.05;;;16.10;99.90;;;;;;4909093;29;20131;-67
2022/06/10 05:02:46;;;;;;;2.63;1.08;;;16.10;99.90;;;;;;4889126;29;20143;-67
2022/06/10 05:05:13;;;;;;;2.83;1.30;;;16.10;99.90;;;;;;4888868;29;20825;-68
2022/06/10 05:07:40;;;;;;;3.15;1.63;;;16.10;99.90;;;;;;4880657;29;20569;-68
2022/06/10 05:10:07;;;;;;;2.60;1.05;;;16.20;99.90;;;;;;4906905;29;20082;-67
2022/06/10 05:12:34;;;;;;;1.70;0.98;;;16.20;99.90;;;;;;4907307;29;20126;-67
2022/06/10 05:15:01;;;;;;;1.95;0.98;;;16.10;99.90;;;;;;4923608;29;20063;-67
2022/06/10 05:17:28;;;;;;;2.20;1.17;;;16.10;99.90;;;;;;4920964;29;20086;-70
2022/06/10 05:19:54;;;;;;;2.08;1.40;;;16.10;99.90;;;;;;4916911;29;20244;-67
2022/06/10 05:22:22;;;;;;;2.67;1.02;;;16.00;99.90;;;;;;4920731;29;20154;-67
2022/06/10 05:24:49;;;;;;;1.85;1.00;;;16.00;99.90;;;;;;4923164;29;20162;-67
2022/06/10 05:27:16;;;;;;;2.28;1.02;;;16.10;99.90;;;;;;4923969;29;20206;-67
2022/06/10 05:29:42;;;;;;;3.72;1.25;;;16.10;99.90;;;;;;4923978;29;20142;-68
2022/06/10 05:32:09;;;;;;;2.22;0.98;;;16.20;99.90;;;;;;4934714;29;20133;-68
2022/06/10 05:34:46;;;;;;;2.30;1.20;;;16.20;99.90;;;;;;4933298;29;20062;-69
2022/06/10 05:37:21;;;;;;;3.60;1.42;;;16.30;99.90;;;;;;4924478;29;20048;-68
2022/06/10 05:39:48;;;;;;;2.78;1.13;;;16.30;99.90;;;;;;4905064;29;20166;-69
2022/06/10 05:42:14;;;;;;;3.83;1.42;;;16.30;99.90;;;;;;4923788;29;20079;-69
2022/06/10 05:44:46;;;;;;;2.17;1.02;;;16.20;99.90;;;;;;4924587;29;20059;-69
2022/06/10 05:47:15;;;;;;;1.98;1.40;;;16.20;99.90;;;;;;4906449;29;20476;-69
2022/06/10 05:49:43;;;;;;;3.42;1.00;;;16.20;99.90;;;;;;4931744;29;20087;-68
2022/06/10 05:52:10;;;;;;;4.05;2.10;;;16.20;99.90;;;;;;4911161;29;20232;-68
2022/06/10 05:54:43;;;;;;;3.75;1.30;;;16.20;99.90;;;;;;4911089;29;20078;-68
2022/06/10 05:57:10;;;;;;;3.97;1.20;;;16.20;99.90;;;;;;4896988;29;20083;-68
2022/06/10 05:59:36;;;;;;;3.45;1.30;;;16.20;99.90;;;;;;4920526;29;20079;-68
2022/06/10 06:02:05;;;;;;;3.47;1.20;;;16.20;99.90;;;;;;4888409;29;20115;-68
2022/06/10 06:04:32;;;;;;;3.63;1.45;;;16.20;99.90;;;;;;4880659;29;20052;-68
2022/06/10 06:06:59;;;;;;;3.47;1.48;;;16.20;99.90;;;;;;4919885;29;20075;-68
2022/06/10 06:09:26;;;;;;;3.45;1.02;;;16.20;99.90;;;;;;4920376;29;20348;-68
2022/06/10 06:11:57;;;;;;;2.72;1.30;;;16.30;99.90;;;;;;4915675;29;20052;-69
2022/06/10 06:14:27;;;;;;;3.33;1.52;;;16.30;99.90;;;;;;4908844;29;20118;-72
2022/06/10 06:16:59;;;;;;;2.20;1.00;;;16.40;99.90;;;;;;4905312;29;20052;-70
2022/06/10 06:19:26;;;;;;;2.50;1.10;;;16.40;99.90;;;;;;4922501;29;20126;-69
2022/06/10 06:21:53;;;;;;;3.63;1.80;;;16.40;99.90;;;;;;4928934;29;20126;-68
2022/06/10 06:24:20;;;;;;;5.93;2.35;;;16.40;99.90;;;;;;4925811;29;20142;-69
2022/06/10 06:26:48;;;;;;;4.50;2.03;;;16.40;99.90;;;;;;4908421;29;20544;-67
2022/06/10 06:29:15;;;;;;;4.20;1.60;;;16.40;99.90;;;;;;4923734;29;20079;-68
2022/06/10 06:31:41;;;;;;;3.88;1.45;;;16.40;99.90;;;;;;4910827;29;20084;-68
2022/06/10 06:34:08;;;;;;;3.88;2.35;;;16.50;99.90;;;;;;4913242;29;20059;-71
2022/06/10 06:36:45;;;;;;;3.20;1.80;;;16.50;99.90;;;;;;4912237;29;20051;-71
2022/06/10 06:39:12;;;;;;;2.78;1.42;;;16.60;99.90;;;;;;4917451;29;20091;-67
2022/06/10 06:41:44;;;;;;;3.17;1.33;;;16.50;99.90;;;;;;4904411;29;20127;-67
2022/06/10 06:44:11;;;;;;;2.65;1.60;;;16.60;99.90;;;;;;4911932;29;20127;-67
2022/06/10 06:46:39;;;;;;;4.80;2.00;;;16.60;99.90;;;;;;4913398;29;20427;-69
2022/06/10 06:49:08;;;;;;;3.45;2.00;;;16.70;99.90;;;;;;4912640;29;20094;-74
2022/06/10 06:51:35;;;;;;;3.60;1.60;;;16.70;99.90;;;;;;4883027;29;20099;-70
2022/06/10 06:54:01;;;;;;;5.75;2.15;;;16.80;99.90;;;;;;4911379;29;20082;-73
2022/06/10 06:56:28;;;;;;;5.13;1.95;;;16.80;99.90;;;;;;4911303;29;20122;-68
2022/06/10 06:58:56;;;;;;;4.60;2.17;;;16.90;99.90;;;;;;4912287;29;20154;-67
2022/06/10 07:01:23;;;;;;;5.75;2.20;;;16.90;99.90;;;;;;4896994;29;20063;-79
2022/06/10 07:03:50;;;;;;;6.07;2.40;;;17.00;99.90;;;;;;4893755;29;20456;-73
2022/06/10 07:06:18;;;;;;;5.25;2.35;;;17.10;99.90;;;;;;4910457;29;20133;-67
2022/06/10 07:08:44;;;;;;;5.45;2.38;;;17.20;99.90;;;;;;4929919;29;20153;-72
2022/06/10 07:11:11;;;;;;;3.70;1.77;;;17.20;99.90;;;;;;4895912;29;20138;-68
2022/06/10 07:13:38;;;;;;;4.45;2.00;;;17.30;99.90;;;;;;4925132;29;20143;-68
2022/06/10 07:16:06;;;;;;;4.65;2.10;;;17.40;99.90;;;;;;4929182;29;20154;-68
2022/06/10 07:18:33;;;;;;;4.03;1.80;;;17.50;99.90;;;;;;4895297;29;20079;-68
2022/06/10 07:21:00;;;;;;;7.25;3.30;;;17.50;99.90;;;;;;4890747;29;20126;-68
2022/06/10 07:23:27;;;;;;;6.57;2.72;;;17.60;99.90;;;;;;4907952;29;20084;-68
2022/06/10 07:25:54;;;;;;;4.78;2.40;;;17.80;99.90;;;;;;4872647;29;20043;-68
2022/06/10 07:28:21;;;;;;;4.10;2.08;;;17.90;99.90;;;;;;4918415;29;20135;-68
2022/06/10 07:30:48;;;;;;;6.68;2.53;;;18.00;99.90;;;;;;4912686;29;20055;-68
2022/06/10 07:33:14;;;;;;;7.28;2.78;;;18.10;99.90;;;;;;4911049;29;20083;-68
2022/06/10 07:35:41;;;;;;;6.57;2.55;;;18.10;99.90;;;;;;4927091;29;20496;-68
2022/06/10 07:38:09;;;;;;;4.78;2.22;;;18.10;99.90;;;;;;4906969;29;20108;-68
2022/06/10 07:43:38;;;;;;;4.18;1.85;;;18.00;99.90;;;;;;4900191;29;20507;-68
2022/06/10 07:46:05;;;;;;;5.28;2.08;;;18.00;99.90;;;;;;4906272;29;20048;-68
2022/06/10 07:48:32;;;;;;;4.55;2.00;;;18.10;99.90;;;;;;4904142;29;20064;-69
2022/06/10 07:50:59;;;;;;;2.97;1.70;;;18.20;99.90;;;;;;4904054;29;20087;-69
2022/06/10 07:53:29;;;;;;;3.70;1.77;;;18.30;99.90;;;;;;4904645;29;20452;-69
2022/06/10 07:55:56;;;;;;;4.13;2.05;;;18.30;99.90;;;;;;4886207;29;20519;-69
2022/06/10 07:58:24;;;;;;;3.67;1.50;;;18.40;99.90;;;;;;4901075;29;20058;-69
2022/06/10 08:00:51;;;;;;;5.22;1.73;;;18.40;99.90;;;;;;4899549;29;20376;-69
2022/06/10 08:03:18;;;;;;;5.65;2.38;;;18.40;99.90;;;;;;4888509;29;20317;-69
2022/06/10 08:05:45;;;;;;;5.63;2.00;;;18.40;99.90;;;;;;4898081;29;20055;-68
2022/06/10 08:08:16;;;;;;;2.88;1.48;;;18.40;99.90;;;;;;4922969;29;20138;-68
2022/06/10 08:10:43;;;;;;;3.40;1.67;;;18.50;99.90;;;;;;4895765;29;20111;-77
2022/06/10 08:13:10;;;;;;;4.32;1.98;;;18.60;99.90;;;;;;4878954;29;20079;-69
2022/06/10 08:15:38;;;;;;;3.42;1.75;;;18.70;99.90;;;;;;4911465;29;20296;-69
2022/06/10 08:18:05;;;;;;;3.70;1.70;;;18.80;99.90;;;;;;4895838;29;20087;-69
2022/06/10 08:23:22;;;;;;;4.50;2.30;;;18.80;99.90;;;;;;4912269;29;20075;-69
2022/06/10 08:25:49;;;;;;;3.03;1.65;;;18.90;99.90;;;;;;4907154;29;20464;-69
2022/06/10 08:28:15;;;;;;;2.58;1.65;;;19.10;99.90;;;;;;4906129;29;20516;-69
2022/06/10 08:30:42;;;;;;;3.25;1.60;;;19.20;99.90;;;;;;4908799;29;20142;-69
2022/06/10 08:33:09;;;;;;;2.90;1.35;;;19.50;99.90;;;;;;4927029;29;20424;-68
2022/06/10 08:35:37;;;;;;;4.10;1.90;;;19.60;99.90;;;;;;4906397;29;20464;-69
2022/06/10 08:38:06;;;;;;;3.40;1.70;;;19.70;99.90;;;;;;4907856;29;20056;-69
2022/06/10 08:40:39;;;;;;;5.32;2.40;;;19.70;99.90;;;;;;4891360;29;20140;-69
2022/06/10 08:43:14;;;;;;;;;;;19.80;99.90;;;;;;4925543;29;20451;-69
2022/06/10 08:46:25;;;;;;;3.63;1.73;;;19.90;99.90;;;;;;4894930;29;20022;-68
2022/06/10 08:48:58;;;;;;;3.45;2.00;;;20.00;99.90;;;;;;4934406;29;20055;-69
2022/06/10 08:51:43;;;;;;;5.07;2.13;;;20.10;99.90;;;;;;4928004;29;20140;-73
2022/06/10 08:54:31;;;;;;;4.55;2.10;;;20.10;99.90;;;;;;4927555;29;20554;-69
2022/06/10 08:56:59;;;;;;;2.92;1.80;;;20.10;99.90;;;;;;4924535;29;20166;-68
2022/06/10 08:59:29;;;;;;;5.07;1.92;;;20.00;99.90;;;;;;4891827;29;20127;-69
2022/06/10 09:02:05;;;;;;;2.95;1.33;;;20.10;99.90;;;;;;4905562;29;20120;-68
2022/06/10 09:05:05;;;;;;;2.88;1.58;;;20.10;99.90;;;;;;4907074;29;20059;-69
2022/06/10 09:07:56;;;;;;;2.90;1.67;;;20.10;99.90;;;;;;4899825;29;20165;-71
2022/06/10 09:10:51;;;;;;;3.25;1.30;;;20.00;99.90;;;;;;4918233;29;20058;-76
2022/06/10 09:13:27;;;;;;;3.50;1.92;;;20.00;99.90;;;;;;4904667;29;20060;-83
2022/06/10 09:16:09;;;;;;;4.50;1.50;;;20.10;99.90;;;;;;4919259;29;20355;-88
2022/06/10 09:19:05;;;;;;;2.92;1.40;;;20.20;99.90;;;;;;4893196;29;20273;-69
2022/06/10 09:22:12;;;;;;;5.05;1.83;;;20.30;99.90;;;;;;4919478;29;20166;-68
2022/06/10 09:24:47;;;;;;;3.97;1.58;;;20.30;99.90;;;;;;4877923;29;20538;-69
2022/06/10 09:27:20;;;;;;;3.42;1.50;;;20.20;99.90;;;;;;4913136;29;20670;-68
2022/06/10 09:29:47;;;;;;;;;;;20.10;99.90;;;;;;4930985;29;20063;-68
2022/06/10 09:32:18;;;;;;;2.88;1.70;;;20.00;99.90;;;;;;4921298;29;19989;-68
2022/06/10 09:35:09;;;;;;;3.40;1.48;;;20.00;99.90;;;;;;4926139;29;20518;-69
2022/06/10 09:37:51;;;;;;;2.88;1.35;;;19.90;99.90;;;;;;4894659;29;20534;-68
2022/06/10 09:40:37;;;;;;;2.65;1.33;;;20.00;99.90;;;;;;4907391;29;20055;-68
2022/06/10 09:43:45;;;;;;;3.05;1.55;;;20.40;99.90;;;;;;4906140;29;20102;-68
2022/06/10 09:46:18;;;;;;;3.38;1.40;;;20.60;99.90;;;;;;4895834;29;20460;-69
2022/06/10 09:49:11;;;;;;;3.55;1.90;;;20.70;99.90;;;;;;4921548;29;20138;-69
2022/06/10 09:52:03;;;;;;;3.42;1.52;;;20.50;99.90;;;;;;4905026;29;20160;-68
2022/06/10 09:54:38;;;;;;;4.05;1.80;;;20.50;99.90;;;;;;4906625;29;20130;-69
2022/06/10 09:57:23;;;;;;;3.10;1.50;;;20.70;99.90;;;;;;4924309;29;20095;-68
2022/06/10 10:00:10;;;;;;;2.88;1.50;;;20.70;99.90;;;;;;4903909;29;20052;-69
2022/06/10 10:03:14;;;;;;;3.42;1.83;;;20.90;99.90;;;;;;4918765;29;20087;-69
2022/06/10 10:06:01;;;;;;;2.20;1.48;;;21.00;99.90;;;;;;4891855;29;20048;-68
2022/06/10 10:08:37;;;;;;;3.13;1.73;;;21.10;99.90;;;;;;4907313;29;20356;-75
2022/06/10 10:11:19;;;;;;;4.18;1.95;;;21.00;99.90;;;;;;4893344;29;20463;-70
2022/06/10 10:14:04;;;;;;;4.07;1.50;;;20.90;99.90;;;;;;4927130;29;20134;-68
2022/06/10 10:16:59;;;;;;;3.67;1.73;;;21.00;99.90;;;;;;4929788;29;20052;-68
2022/06/10 10:19:34;;;;;;;1.98;1.00;;;21.00;99.90;;;;;;4912194;29;20056;-69
2022/06/10 10:22:25;;;;;;;2.08;1.10;;;21.00;99.90;;;;;;4898533;29;20135;-68
2022/06/10 10:24:52;;;;;;;2.63;1.25;;;21.20;99.90;;;;;;4919203;29;20148;-68
2022/06/10 10:27:21;;;;;;;2.40;1.20;;;21.40;99.90;;;;;;4909305;29;20155;-74
2022/06/10 10:29:52;;;;;;;1.75;1.00;;;21.60;99.90;;;;;;4909866;29;20143;-68
2022/06/10 10:32:24;;;;;;;2.03;1.15;;;21.90;99.90;;;;;;4927079;29;20978;-68
2022/06/10 10:35:00;;;;;;;3.55;1.65;;;22.10;99.90;;;;;;4910905;29;20071;-69
2022/06/10 10:37:29;;;;;;;3.97;1.70;;;22.20;99.90;;;;;;4912140;29;20506;-68
2022/06/10 10:40:06;;;;;;;2.17;1.08;;;22.40;99.90;;;;;;4893827;29;20098;-68
2022/06/10 10:42:34;;;;;;;2.00;0.85;;;22.60;99.90;;;;;;4878874;29;20048;-68
2022/06/10 10:45:06;;;;;;;2.47;1.00;;;22.80;99.90;;;;;;4910702;29;20090;-71
2022/06/10 10:47:34;;;;;;;3.30;1.52;;;22.90;99.90;;;;;;4890770;29;20044;-70
2022/06/10 10:50:01;;;;;;;4.20;1.40;;;22.70;99.90;;;;;;4907567;29;20055;-69
2022/06/10 10:52:34;;;;;;;3.47;1.38;;;22.60;99.90;;;;;;4929899;29;20514;-68
2022/06/10 10:55:23;;;;;;;2.33;1.30;;;22.50;99.90;;;;;;4912455;29;20111;-75
2022/06/10 10:58:08;;;;;;;2.15;0.93;;;22.70;99.90;;;;;;4885226;29;20052;-76
2022/06/10 11:00:45;;;;;;;4.15;1.55;;;23.10;99.90;;;;;;4892708;29;20155;-68
2022/06/10 11:03:26;;;;;;;3.25;1.13;;;23.00;99.90;;;;;;4907816;29;20139;-73
2022/06/10 11:05:53;;;;;;;3.60;1.73;;;23.10;99.90;;;;;;4909365;29;20118;-69
2022/06/10 11:08:26;;;;;;;2.58;1.20;;;23.10;99.90;;;;;;4909724;29;20471;-82
2022/06/10 11:11:14;;;;;;;2.85;1.20;;;23.10;99.90;;;;;;4909591;29;20233;-68
2022/06/10 11:13:47;;;;;;;2.63;1.35;;;23.30;99.90;;;;;;4908232;29;20135;-69
2022/06/10 11:16:18;;;;;;;;;;;23.50;99.90;;;;;;4910599;29;20090;-69
2022/06/10 11:18:46;;;;;;;3.80;1.23;;;23.40;99.90;;;;;;4909352;29;19930;-69
2022/06/10 11:21:13;;;;;;;1.70;1.00;;;23.50;99.90;;;;;;4909682;29;20628;-68
2022/06/10 11:23:49;;;;;;;3.17;1.27;;;23.40;99.90;;;;;;4909169;29;20196;-68
2022/06/10 11:26:17;;;;;;;2.53;1.20;;;23.60;99.90;;;;;;4909014;29;20051;-68
2022/06/10 11:28:44;;;;;;;2.17;1.05;;;23.80;99.90;;;;;;4908122;29;20052;-69
2022/06/10 11:31:23;;;;;;;2.20;1.15;;;24.00;99.90;;;;;;4909582;29;20143;-69
2022/06/10 11:33:55;;;;;;;2.50;1.23;;;24.20;99.90;;;;;;4909383;29;20044;-76
2022/06/10 11:36:45;;;;;;;4.32;1.38;;;23.90;99.50;;;;;;4909828;29;20151;-76
2022/06/10 11:39:18;;;;;;;3.58;1.52;;;23.40;99.90;;;;;;4909489;29;20463;-76
2022/06/10 11:42:17;;;;;;;5.20;1.70;;;23.00;99.90;;;;;;4895475;29;20119;-76
2022/06/10 11:44:50;;;;;;;2.65;1.38;;;22.90;99.90;;;;;;4901934;29;20149;-79
2022/06/10 11:47:26;;;;;;;2.30;1.23;;;23.10;99.90;;;;;;4892089;29;20133;-76
2022/06/10 11:50:06;;;;;;;2.08;1.10;;;23.50;99.90;;;;;;4890548;29;20492;-79
2022/06/10 11:52:35;;;;;;;2.95;1.25;;;23.90;99.90;;;;;;4909922;29;20496;-74
2022/06/10 11:55:19;;;;;;;2.40;1.10;;;24.00;99.60;;;;;;4908227;29;20487;-71
2022/06/10 12:00:49;;;;;;;2.67;1.47;;;24.50;98.90;;;;;;4912010;29;20134;-72
2022/06/10 12:03:28;;;;;;;6.18;2.97;;;24.90;98.90;;;;;;4908678;29;20761;-76
2022/06/10 12:05:55;;;;;;;4.32;1.88;;;25.10;97.60;;;;;;4910231;29;20059;-76
2022/06/10 12:08:42;;;;;;;3.85;1.80;;;25.30;97.70;;;;;;4925952;29;20043;-69
2022/06/10 12:11:38;;;;;;;4.63;1.90;;;25.30;97.10;;;;;;4925338;29;20147;-74
2022/06/10 12:14:19;;;;;;;4.07;1.90;;;25.50;97.20;;;;;;4892298;29;20083;-69
2022/06/10 12:16:48;;;;;;;2.80;1.30;;;25.80;96.40;;;;;;4893674;29;20059;-69
2022/06/10 12:19:24;;;;;;;4.50;1.73;;;25.90;96.20;;;;;;4908676;29;20115;-69
2022/06/10 12:21:51;;;;;;;4.00;1.55;;;25.80;95.40;;;;;;4907044;29;20411;-69
2022/06/10 12:24:20;;;;;;;3.25;1.45;;;25.90;95.20;;;;;;4901387;29;20383;-69
2022/06/10 12:26:49;;;;;;;2.28;1.13;;;26.00;95.30;;;;;;4879275;29;20174;-69
2022/06/10 12:29:27;;;;;;;2.15;1.17;;;26.40;95.60;;;;;;4915761;29;20067;-69
2022/06/10 12:32:07;;;;;;;2.85;1.25;;;26.80;95.90;;;;;;4917395;29;20047;-69
2022/06/10 12:34:58;;;;;;;1.92;0.90;;;27.20;94.00;;;;;;4917587;29;20055;-69
2022/06/10 12:37:52;;;;;;;3.25;1.50;;;26.80;93.60;;;;;;4917059;29;20082;-69
2022/06/10 12:40:31;;;;;;;3.38;1.50;;;26.60;94.20;;;;;;4907396;29;20150;-69
2022/06/10 12:43:22;;;;;;;2.83;1.30;;;26.80;95.00;;;;;;4904659;29;20475;-70
2022/06/10 12:45:58;;;;;;;2.75;1.30;;;27.20;94.60;;;;;;4892963;29;20043;-69
2022/06/10 12:48:30;;;;;;;2.83;1.40;;;27.10;94.90;;;;;;4884608;29;20416;-69
2022/06/10 12:51:01;;;;;;;4.57;1.95;;;27.00;94.50;;;;;;4898483;29;20053;-69
2022/06/10 12:53:33;;;;;;;4.63;1.80;;;26.30;94.40;;;;;;4903915;29;20075;-69
2022/06/10 12:56:01;;;;;;;3.88;2.17;;;25.90;94.50;;;;;;4915363;29;20131;-69
2022/06/10 12:58:37;;;;;;;3.50;1.60;;;26.00;94.70;;;;;;4895953;29;20127;-69
2022/06/10 13:01:16;;;;;;;3.10;1.58;;;26.10;95.10;;;;;;4896916;29;20092;-69
2022/06/10 13:03:43;;;;;;;3.22;1.35;;;26.60;94.60;;;;;;4900641;29;20050;-69
2022/06/10 13:06:41;;;;;;;2.30;1.30;;;27.00;94.10;;;;;;4875443;29;20514;-69
2022/06/10 13:09:11;;;;;;;4.30;1.60;;;27.50;92.50;;;;;;4905813;29;20139;-74
2022/06/10 13:11:46;;;;;;;5.10;2.03;;;27.10;93.00;;;;;;4904570;29;20574;-69
2022/06/10 13:14:18;;;;;;;3.50;1.45;;;26.50;93.80;;;;;;4892314;29;20056;-68
2022/06/10 13:16:48;;;;;;;3.57;1.77;;;26.90;93.60;;;;;;4924859;29;20050;-68
2022/06/10 13:19:35;;;;;;;3.97;1.60;;;27.50;93.50;;;;;;4908398;29;20093;-68
2022/06/10 13:22:17;;;;;;;5.18;2.15;;;27.80;92.60;;;;;;4898687;29;20136;-68
2022/06/10 13:24:53;;;;;;;2.28;1.10;;;28.10;92.50;;;;;;4923864;29;20055;-69
2022/06/10 13:27:25;;;;;;;3.00;1.45;;;28.80;91.70;;;;;;4922875;29;20115;-67
2022/06/10 13:29:53;;;;;;;;;;;29.00;91.40;;;;;;4926525;29;20095;-67
2022/06/10 13:32:20;;;;;;;2.70;1.55;;;29.10;90.90;;;;;;4923951;29;19969;-67